Aeroporto :
LOGIN :

Iscrizione | Disclaimer

   EN    FR    IT 

 










Sommario :    VFR   VFR Marginale   IFR   IFR Intensivo   IFR Molto Intensivo
Visibilità : 
Base nubi : 
>= 8 km
>= 3000ft
5 / 8 km
1000 / 3000 ft
1500m / 5 km
500 / 1000 ft
800 / 1500m
200 / 500 ft
< 800m
< 200 ft
Simboli :   Temporali  Nebbia  Neve Forte  Precipitazioni Forti  Vento > 20 kt
SIGMETs :   Varie  Temporali  Ghiacco  Turbolenza  Onda orograficha  Ceneri Vulcaniche






- Altitudine del aeroporto : 2297 ft


LEGA - Armilla

ULTIMO METAR :
  • 141100Z 35005KT 270V060 CAVOK 29/08 Q1018

METARs OBSOLETI :
  • 141030Z 31005KT 260V040 CAVOK 29/08 Q1018
  • 141000Z VRB04KT CAVOK 28/09 Q1018
  • 140930Z VRB03KT CAVOK 26/08 Q1018
  • 140900Z VRB02KT CAVOK 24/08 Q1018
  • 140830Z 34003KT CAVOK 23/08 Q1018
  • 140800Z 32003KT 220V030 CAVOK 23/09 Q1019
  • 140730Z 00000KT CAVOK 21/09 Q1019
  • 140700Z 36005KT CAVOK 21/09 Q1019

TAF TAF LEGA
Valido dal 14 a 06 ore il 15 a 06 ore UTC


140500Z 1406/1506 VRB03KT CAVOK TX35/1415Z TN15/1505Z
BECMG 1410/1412 18010KT
BECMG 1420/1422 VRB03KT



MetMap, La meteo Aeronautica in un colpo d'occhio ! - Copyright ORBIFLY Dicembre 2007 - Disclaimer

ORBIFLY MET'MAP TEAM :

Programmazione e sviluppo : Alexandra Zaïnal
Concezione : Baudouin d'Aumeries
Supporto tecnico e logistico : Manuel Goepfert
Aiuto : Marc-Olivier Méhu
Aiuto per la traduzione : Arnaldo La Scala




FONTI E CREDITI :

   NOAA